createdAt,value
2023-09-27T00:00:47.487Z,13.46
2023-09-27T00:03:14.055Z,13.50
2023-09-27T00:03:55.145Z,13.50
2023-09-27T00:05:40.861Z,12.77
2023-09-27T00:08:07.746Z,13.52
2023-09-27T00:08:55.124Z,13.52
2023-09-27T00:10:34.490Z,13.72
2023-09-27T00:13:00.880Z,13.71
2023-09-27T00:13:55.125Z,13.71
2023-09-27T00:15:27.382Z,13.33
2023-09-27T00:17:53.735Z,13.68
2023-09-27T00:18:55.310Z,13.68
2023-09-27T00:20:21.312Z,13.65
2023-09-27T00:22:47.998Z,13.63
2023-09-27T00:23:55.123Z,13.63
2023-09-27T00:25:15.516Z,13.14
2023-09-27T00:27:43.169Z,13.56
2023-09-27T00:28:55.499Z,13.56
2023-09-27T00:30:14.538Z,13.55
2023-09-27T00:32:42.166Z,13.53
2023-09-27T00:33:55.110Z,13.53
2023-09-27T00:35:15.886Z,13.49
2023-09-27T00:37:42.491Z,13.46
2023-09-27T00:38:55.073Z,13.46
2023-09-27T00:40:14.073Z,13.45
2023-09-27T00:42:40.605Z,13.45
2023-09-27T00:43:55.168Z,13.45
2023-09-27T00:45:08.200Z,13.43
2023-09-27T00:47:38.628Z,13.38
2023-09-27T00:48:55.164Z,13.38
2023-09-27T00:50:09.007Z,13.12
2023-09-27T00:52:40.398Z,13.17
2023-09-27T00:53:55.088Z,13.17
2023-09-27T00:55:12.216Z,13.21
2023-09-27T00:57:39.761Z,13.18
2023-09-27T00:58:55.131Z,13.18
2023-09-27T01:00:11.075Z,12.66
2023-09-27T01:02:39.050Z,12.65
2023-09-27T01:03:55.183Z,12.65
2023-09-27T01:05:09.548Z,12.93
2023-09-27T01:07:38.280Z,13.03
2023-09-27T01:08:55.259Z,13.03
2023-09-27T01:10:05.639Z,12.55
2023-09-27T01:12:32.168Z,12.95
2023-09-27T01:13:55.112Z,12.95
2023-09-27T01:14:58.991Z,12.74
2023-09-27T01:17:25.480Z,12.88
2023-09-27T01:18:55.455Z,12.88
2023-09-27T01:19:52.062Z,12.87
2023-09-27T01:22:18.609Z,12.38
2023-09-27T01:23:55.101Z,12.38
2023-09-27T01:24:45.572Z,12.86
2023-09-27T01:27:14.624Z,12.78
2023-09-27T01:28:55.495Z,12.78
2023-09-27T01:29:41.019Z,12.24
2023-09-27T01:32:07.489Z,12.59
2023-09-27T01:33:55.094Z,12.59
2023-09-27T01:34:36.261Z,12.01
2023-09-27T01:37:02.663Z,12.33
2023-09-27T01:38:55.214Z,12.33
2023-09-27T01:39:31.517Z,12.40
2023-09-27T01:41:58.140Z,12.11
2023-09-27T01:43:55.120Z,12.11
2023-09-27T01:44:24.695Z,12.44
2023-09-27T01:46:51.229Z,12.41
2023-09-27T01:48:55.251Z,12.41
2023-09-27T01:49:17.616Z,12.38
2023-09-27T01:51:44.383Z,12.35
2023-09-27T01:53:55.098Z,12.35
2023-09-27T01:54:11.088Z,12.32
2023-09-27T01:56:37.558Z,12.27
2023-09-27T01:58:55.329Z,12.27
2023-09-27T01:59:04.026Z,11.16
2023-09-27T02:01:30.613Z,12.31
2023-09-27T02:03:55.244Z,12.31
2023-09-27T02:03:57.506Z,11.88
2023-09-27T02:06:24.638Z,12.28
2023-09-27T02:08:51.212Z,12.16
2023-09-27T02:08:55.342Z,12.16
2023-09-27T02:11:20.443Z,12.27
2023-09-27T02:13:47.392Z,12.28
2023-09-27T02:13:55.124Z,12.28
2023-09-27T02:16:14.137Z,11.88
2023-09-27T02:18:40.565Z,12.24
2023-09-27T02:18:55.422Z,12.24
2023-09-27T02:21:07.144Z,12.24
2023-09-27T02:23:33.567Z,12.21
2023-09-27T02:23:55.094Z,12.21
2023-09-27T02:26:00.165Z,12.12
2023-09-27T02:28:26.605Z,12.17
2023-09-27T02:28:55.428Z,12.17
2023-09-27T02:30:53.062Z,12.07
2023-09-27T02:33:20.101Z,12.00
2023-09-27T02:33:55.114Z,12.00
2023-09-27T02:35:46.548Z,11.73
2023-09-27T02:38:13.030Z,12.06
2023-09-27T02:38:55.119Z,12.06
2023-09-27T02:40:41.218Z,12.02
2023-09-27T02:43:07.617Z,11.98
2023-09-27T02:43:55.143Z,11.98
2023-09-27T02:45:35.278Z,11.26
2023-09-27T02:48:02.728Z,11.58
2023-09-27T02:48:55.420Z,11.58
2023-09-27T02:50:29.266Z,11.94
2023-09-27T02:52:55.697Z,11.97
2023-09-27T02:53:55.113Z,11.97
2023-09-27T02:55:24.228Z,12.00
2023-09-27T02:57:55.047Z,12.00
2023-09-27T02:58:55.229Z,12.00
2023-09-27T03:00:22.916Z,12.04
2023-09-27T03:02:49.789Z,12.06
2023-09-27T03:03:55.226Z,12.06
2023-09-27T03:05:16.512Z,12.08
2023-09-27T03:07:45.806Z,12.11
2023-09-27T03:08:55.386Z,12.11
2023-09-27T03:10:12.690Z,12.14
2023-09-27T03:12:40.713Z,12.14
2023-09-27T03:13:55.169Z,12.14
2023-09-27T03:15:13.918Z,11.76
2023-09-27T03:17:45.180Z,12.13
2023-09-27T03:18:55.399Z,12.13
2023-09-27T03:20:20.289Z,11.70
2023-09-27T03:22:47.680Z,11.76
2023-09-27T03:23:55.121Z,11.76
2023-09-27T03:25:14.640Z,12.28
2023-09-27T03:27:41.077Z,12.23
2023-09-27T03:28:55.380Z,12.23
2023-09-27T03:30:08.013Z,11.53
2023-09-27T03:32:34.545Z,12.16
2023-09-27T03:33:55.171Z,12.16
2023-09-27T03:35:01.409Z,12.05
2023-09-27T03:37:27.901Z,12.05
2023-09-27T03:38:55.213Z,12.05
2023-09-27T03:39:54.362Z,11.74
2023-09-27T03:42:21.337Z,12.07
2023-09-27T03:43:55.144Z,12.07
2023-09-27T03:44:51.387Z,12.08
2023-09-27T03:47:18.013Z,12.11
2023-09-27T03:48:55.422Z,12.11
2023-09-27T03:49:44.764Z,12.13
2023-09-27T03:52:11.181Z,12.16
2023-09-27T03:53:55.121Z,12.16
2023-09-27T03:54:37.854Z,12.18
2023-09-27T03:57:05.121Z,11.98
2023-09-27T03:58:55.148Z,11.98
2023-09-27T03:59:31.565Z,12.19
2023-09-27T04:01:58.094Z,12.15
2023-09-27T04:03:55.328Z,12.15
2023-09-27T04:04:25.394Z,12.23
2023-09-27T04:06:52.718Z,12.23
2023-09-27T04:08:55.361Z,12.23
2023-09-27T04:09:19.099Z,11.98
2023-09-27T04:11:45.616Z,11.70
2023-09-27T04:13:55.222Z,11.70
2023-09-27T04:14:12.943Z,12.19
2023-09-27T04:16:39.412Z,12.17
2023-09-27T04:18:55.255Z,12.17
2023-09-27T04:19:05.886Z,12.16
2023-09-27T04:21:32.504Z,12.15
2023-09-27T04:23:55.135Z,12.15
2023-09-27T04:24:00.571Z,12.01
2023-09-27T04:26:27.952Z,12.12
2023-09-27T04:28:54.890Z,12.11
2023-09-27T04:28:55.147Z,12.11
2023-09-27T04:31:21.913Z,12.10
2023-09-27T04:33:48.621Z,12.06
2023-09-27T04:33:55.170Z,12.06
2023-09-27T04:36:18.931Z,11.97
2023-09-27T04:38:46.245Z,12.04
2023-09-27T04:38:55.178Z,12.04
2023-09-27T04:41:17.070Z,12.03
2023-09-27T04:43:44.065Z,11.99
2023-09-27T04:43:55.129Z,11.99
2023-09-27T04:46:15.202Z,11.95
2023-09-27T04:48:41.793Z,11.94
2023-09-27T04:48:55.217Z,11.94
2023-09-27T04:51:08.334Z,11.94
2023-09-27T04:53:38.182Z,11.91
2023-09-27T04:53:55.160Z,11.91
2023-09-27T04:56:07.282Z,11.76
2023-09-27T04:58:35.235Z,11.79
2023-09-27T04:58:55.313Z,11.79
2023-09-27T05:01:03.453Z,11.70
2023-09-27T05:03:29.937Z,11.71
2023-09-27T05:03:55.207Z,11.71
2023-09-27T05:05:56.486Z,11.66
2023-09-27T05:08:22.913Z,11.64
2023-09-27T05:08:55.214Z,11.64
2023-09-27T05:10:49.294Z,11.26
2023-09-27T05:13:15.853Z,11.49
2023-09-27T05:13:55.149Z,11.49
2023-09-27T05:15:42.328Z,11.46
2023-09-27T05:18:08.827Z,11.47
2023-09-27T05:18:55.291Z,11.47
2023-09-27T05:20:36.768Z,11.28
2023-09-27T05:23:03.494Z,11.12
2023-09-27T05:23:55.136Z,11.12
2023-09-27T05:25:30.029Z,11.32
2023-09-27T05:27:58.128Z,11.05
2023-09-27T05:28:55.144Z,11.05
2023-09-27T05:30:24.615Z,11.38
2023-09-27T05:32:51.136Z,10.80
2023-09-27T05:33:55.140Z,10.80
2023-09-27T05:35:17.690Z,11.06
2023-09-27T05:37:45.662Z,11.52
2023-09-27T05:38:55.336Z,11.52
2023-09-27T05:40:12.456Z,11.55
2023-09-27T05:42:39.786Z,11.61
2023-09-27T05:43:55.227Z,11.61
2023-09-27T05:45:07.362Z,11.67
2023-09-27T05:47:34.388Z,11.52
2023-09-27T05:48:55.621Z,11.52
2023-09-27T05:50:00.937Z,11.82
2023-09-27T05:52:28.341Z,11.56
2023-09-27T05:53:55.161Z,11.56
2023-09-27T05:54:54.868Z,12.05
2023-09-27T05:57:22.638Z,11.93
2023-09-27T05:58:55.147Z,11.93
2023-09-27T05:59:49.449Z,12.35
2023-09-27T06:02:21.088Z,12.12
2023-09-27T06:03:55.263Z,12.12
2023-09-27T06:08:28.419Z,12.93
2023-09-27T06:08:55.254Z,12.93
2023-09-27T06:10:54.897Z,13.06
2023-09-27T06:13:21.239Z,12.86
2023-09-27T06:13:55.147Z,12.86
2023-09-27T06:15:50.694Z,13.16
2023-09-27T06:18:17.662Z,13.42
2023-09-27T06:18:55.150Z,13.42
2023-09-27T06:20:45.082Z,13.48
2023-09-27T06:23:11.550Z,13.45
2023-09-27T06:23:55.139Z,13.45
2023-09-27T06:25:38.372Z,13.33
2023-09-27T06:28:05.266Z,13.11
2023-09-27T06:28:55.145Z,13.11
2023-09-27T06:30:32.064Z,13.14
2023-09-27T06:32:58.631Z,13.10
2023-09-27T06:33:55.156Z,13.10
2023-09-27T06:35:25.365Z,12.95
2023-09-27T06:37:52.002Z,13.20
2023-09-27T06:38:55.407Z,13.20
2023-09-27T06:40:20.456Z,12.96
2023-09-27T06:42:50.926Z,13.16
2023-09-27T06:43:55.249Z,13.16
2023-09-27T06:45:18.062Z,12.73
2023-09-27T06:47:49.121Z,13.21
2023-09-27T06:48:55.374Z,13.21
2023-09-27T06:50:18.119Z,13.25
2023-09-27T06:52:46.577Z,12.40
2023-09-27T06:53:55.174Z,12.40
2023-09-27T06:55:14.157Z,13.28
2023-09-27T06:57:41.592Z,13.41
2023-09-27T06:58:55.152Z,13.41
2023-09-27T07:00:19.565Z,13.53
2023-09-27T07:02:49.788Z,13.59
2023-09-27T07:03:55.313Z,13.59
2023-09-27T07:05:17.584Z,13.74
2023-09-27T07:07:44.281Z,13.89
2023-09-27T07:08:55.149Z,13.89
2023-09-27T07:10:10.832Z,14.07
2023-09-27T07:12:38.082Z,14.24
2023-09-27T07:13:55.140Z,14.24
2023-09-27T07:15:13.932Z,14.20
2023-09-27T07:17:42.091Z,14.45
2023-09-27T07:18:55.470Z,14.45
2023-09-27T07:20:30.117Z,14.76
2023-09-27T07:22:57.838Z,14.95
2023-09-27T07:23:55.134Z,14.95
2023-09-27T07:25:24.714Z,15.12
2023-09-27T07:27:54.261Z,15.24
2023-09-27T07:28:55.472Z,15.24
2023-09-27T07:30:25.096Z,15.48
2023-09-27T07:32:52.702Z,15.75
2023-09-27T07:33:55.145Z,15.75
2023-09-27T07:35:20.127Z,15.91
2023-09-27T07:37:46.530Z,15.40
2023-09-27T07:38:55.408Z,15.40
2023-09-27T07:40:14.237Z,15.95
2023-09-27T07:42:45.437Z,15.78
2023-09-27T07:43:55.300Z,15.78
2023-09-27T07:45:23.790Z,15.75
2023-09-27T07:47:54.625Z,15.93
2023-09-27T07:48:55.404Z,15.93
2023-09-27T07:50:23.284Z,15.83
2023-09-27T07:52:49.854Z,16.03
2023-09-27T07:53:55.414Z,16.03
2023-09-27T07:55:18.543Z,16.15
2023-09-27T07:57:45.230Z,16.24
2023-09-27T07:58:55.759Z,16.24
2023-09-27T08:00:16.816Z,15.86
2023-09-27T08:02:46.475Z,16.38
2023-09-27T08:03:55.358Z,16.38
2023-09-27T08:05:15.253Z,15.80
2023-09-27T08:07:41.763Z,16.14
2023-09-27T08:08:55.426Z,16.14
2023-09-27T08:10:21.336Z,16.76
2023-09-27T08:12:48.887Z,16.37
2023-09-27T08:13:55.156Z,16.37
2023-09-27T08:15:15.914Z,16.69
2023-09-27T08:17:43.270Z,17.01
2023-09-27T08:18:55.174Z,17.01
2023-09-27T08:20:12.720Z,17.33
2023-09-27T08:22:43.030Z,17.11
2023-09-27T08:23:55.155Z,17.11
2023-09-27T08:25:15.402Z,17.76
2023-09-27T08:27:45.614Z,17.74
2023-09-27T08:28:55.432Z,17.74
2023-09-27T08:30:13.052Z,17.63
2023-09-27T08:32:40.277Z,18.18
2023-09-27T08:33:55.162Z,18.18
2023-09-27T08:35:08.114Z,18.40
2023-09-27T08:37:35.194Z,18.36
2023-09-27T08:38:55.382Z,18.36
2023-09-27T08:40:02.281Z,18.36
2023-09-27T08:42:30.155Z,18.28
2023-09-27T08:43:55.175Z,18.28
2023-09-27T08:44:58.760Z,18.16
2023-09-27T08:47:25.376Z,17.99
2023-09-27T08:48:55.175Z,17.99
2023-09-27T08:49:52.311Z,17.74
2023-09-27T08:52:19.789Z,17.69
2023-09-27T08:53:55.210Z,17.69
2023-09-27T08:54:46.354Z,17.80
2023-09-27T08:57:13.172Z,18.27
2023-09-27T08:58:55.183Z,18.27
2023-09-27T08:59:40.226Z,18.47
2023-09-27T09:02:07.280Z,18.36
2023-09-27T09:03:55.333Z,18.36
2023-09-27T09:04:36.737Z,18.72
2023-09-27T09:07:04.112Z,18.53
2023-09-27T09:08:55.295Z,18.53
2023-09-27T09:09:31.628Z,18.79
2023-09-27T09:12:01.967Z,19.26
2023-09-27T09:13:55.235Z,19.26
2023-09-27T09:14:46.095Z,18.78
2023-09-27T09:17:16.370Z,19.30
2023-09-27T09:18:56.469Z,19.30
2023-09-27T09:19:45.587Z,18.83
2023-09-27T09:22:14.046Z,19.57
2023-09-27T09:23:55.518Z,19.57
2023-09-27T09:24:46.364Z,19.64
2023-09-27T09:27:16.914Z,19.47
2023-09-27T09:28:55.467Z,19.47
2023-09-27T09:29:50.630Z,19.89
2023-09-27T09:32:19.556Z,19.88
2023-09-27T09:33:55.256Z,19.88
2023-09-27T09:34:52.572Z,19.84
2023-09-27T09:37:19.911Z,20.00
2023-09-27T09:38:55.346Z,20.00
2023-09-27T09:39:48.289Z,19.93
2023-09-27T09:42:31.216Z,19.97
2023-09-27T09:43:55.254Z,19.97
2023-09-27T09:45:07.763Z,20.20
2023-09-27T09:47:36.931Z,20.49
2023-09-27T09:48:55.235Z,20.49
2023-09-27T09:50:09.851Z,20.64
2023-09-27T09:52:40.194Z,20.79
2023-09-27T09:53:55.261Z,20.79
2023-09-27T09:55:22.642Z,20.68
2023-09-27T09:58:30.542Z,20.37
2023-09-27T09:58:55.293Z,20.37
2023-09-27T10:00:59.310Z,20.47
2023-09-27T10:03:32.077Z,20.90
2023-09-27T10:03:55.384Z,20.90
2023-09-27T10:06:02.563Z,20.77
2023-09-27T10:08:39.019Z,21.21
2023-09-27T10:08:55.350Z,21.21
2023-09-27T10:11:05.584Z,20.87
2023-09-27T10:13:34.928Z,21.51
2023-09-27T10:13:55.272Z,21.51
2023-09-27T10:16:02.187Z,20.78
2023-09-27T10:18:34.689Z,21.69
2023-09-27T10:18:55.312Z,21.69
2023-09-27T10:21:09.061Z,21.81
2023-09-27T10:23:47.524Z,21.98
2023-09-27T10:23:55.243Z,21.98
2023-09-27T10:26:29.992Z,22.16
2023-09-27T10:28:55.243Z,22.16
2023-09-27T10:29:04.082Z,22.41
2023-09-27T10:31:32.118Z,22.73
2023-09-27T10:33:55.255Z,22.73
2023-09-27T10:33:58.559Z,23.07
2023-09-27T10:36:24.980Z,23.40
2023-09-27T10:38:51.696Z,23.49
2023-09-27T10:38:55.280Z,23.49
2023-09-27T10:41:33.698Z,23.56
2023-09-27T10:43:55.250Z,23.56
2023-09-27T10:44:03.869Z,23.67
2023-09-27T10:46:43.472Z,23.44
2023-09-27T10:48:55.337Z,23.44
2023-09-27T10:49:10.792Z,23.59
2023-09-27T10:51:38.867Z,23.64
2023-09-27T10:53:55.747Z,23.64
2023-09-27T10:54:08.224Z,23.58
2023-09-27T10:56:35.456Z,23.68
2023-09-27T10:58:55.334Z,23.68
2023-09-27T10:59:02.294Z,23.20
2023-09-27T11:01:29.327Z,23.61
2023-09-27T11:03:59.848Z,23.54
2023-09-27T11:04:00.235Z,23.54
2023-09-27T11:06:28.283Z,23.70
2023-09-27T11:09:10.259Z,23.42
2023-09-27T11:09:10.408Z,23.42
2023-09-27T11:11:36.786Z,23.53
2023-09-27T11:13:55.432Z,23.53
2023-09-27T11:14:03.215Z,23.13
2023-09-27T11:16:30.561Z,23.38
2023-09-27T11:18:55.420Z,23.38
2023-09-27T11:18:57.535Z,23.80
2023-09-27T11:21:27.057Z,24.00
2023-09-27T11:23:53.727Z,24.31
2023-09-27T11:23:55.733Z,24.31
2023-09-27T11:26:23.586Z,24.32
2023-09-27T11:28:58.172Z,24.35
2023-09-27T11:28:58.359Z,24.35
2023-09-27T11:31:26.535Z,24.51
2023-09-27T11:33:53.500Z,24.70
2023-09-27T11:33:55.335Z,24.70
2023-09-27T11:36:20.774Z,24.93
2023-09-27T11:38:51.657Z,23.85
2023-09-27T11:38:55.372Z,23.85
2023-09-27T11:41:21.203Z,24.01
2023-09-27T11:43:47.727Z,23.82
2023-09-27T11:43:55.331Z,23.82
2023-09-27T11:46:33.172Z,23.39
2023-09-27T11:48:55.357Z,23.39
2023-09-27T11:49:11.842Z,23.68
2023-09-27T11:51:38.838Z,23.37
2023-09-27T11:53:55.769Z,23.37
2023-09-27T11:54:06.298Z,23.78
2023-09-27T11:56:34.999Z,24.31
2023-09-27T11:58:55.335Z,24.31
2023-09-27T11:59:02.426Z,24.36
2023-09-27T12:01:28.928Z,24.15
2023-09-27T12:03:55.969Z,24.53
2023-09-27T12:03:56.847Z,24.53
2023-09-27T12:06:23.091Z,24.33
2023-09-27T12:08:49.882Z,24.53
2023-09-27T12:08:55.881Z,24.53
2023-09-27T12:11:16.508Z,24.93
2023-09-27T12:13:43.016Z,24.66
2023-09-27T12:13:55.562Z,24.66
2023-09-27T12:16:09.584Z,25.01
2023-09-27T12:18:36.094Z,24.43
2023-09-27T12:18:55.339Z,24.43
2023-09-27T12:21:02.728Z,25.36
2023-09-27T12:23:29.851Z,25.31
2023-09-27T12:23:55.610Z,25.31
2023-09-27T12:25:56.991Z,24.98
2023-09-27T12:28:23.944Z,25.02
2023-09-27T12:28:55.351Z,25.02
2023-09-27T12:30:50.545Z,24.30
2023-09-27T12:33:19.310Z,24.54
2023-09-27T12:33:55.713Z,24.54
2023-09-27T12:35:48.087Z,24.54
2023-09-27T12:38:14.677Z,24.36
2023-09-27T12:38:55.983Z,24.36
2023-09-27T12:40:41.147Z,24.38
2023-09-27T12:43:08.920Z,24.55
2023-09-27T12:43:55.332Z,24.55
2023-09-27T12:45:38.903Z,24.26
2023-09-27T12:48:05.942Z,24.52
2023-09-27T12:48:55.461Z,24.52
2023-09-27T12:50:32.509Z,24.39
2023-09-27T12:53:02.548Z,24.39
2023-09-27T12:53:55.441Z,24.39
2023-09-27T12:55:28.959Z,23.80
2023-09-27T12:57:55.357Z,24.33
2023-09-27T12:58:55.324Z,24.33
2023-09-27T13:00:21.986Z,24.41
2023-09-27T13:02:51.697Z,24.66
2023-09-27T13:03:56.482Z,24.66
2023-09-27T13:05:18.425Z,24.74
2023-09-27T13:07:44.965Z,24.89
2023-09-27T13:08:55.542Z,24.89
2023-09-27T13:10:11.635Z,24.81
2023-09-27T13:12:44.127Z,24.90
2023-09-27T13:13:55.359Z,24.90
2023-09-27T13:15:11.667Z,24.81
2023-09-27T13:17:38.441Z,24.98
2023-09-27T13:18:55.594Z,24.98
2023-09-27T13:20:11.517Z,25.12
2023-09-27T13:22:38.604Z,25.01
2023-09-27T13:23:55.373Z,25.01
2023-09-27T13:25:07.844Z,25.50
2023-09-27T13:27:34.755Z,25.25
2023-09-27T13:28:55.443Z,25.25
2023-09-27T13:30:02.185Z,25.40
2023-09-27T13:32:29.013Z,25.56
2023-09-27T13:34:09.549Z,25.56
2023-09-27T13:34:55.441Z,25.68
2023-09-27T13:37:21.950Z,25.42
2023-09-27T13:38:55.556Z,25.42
2023-09-27T13:39:48.468Z,26.01
2023-09-27T13:42:14.859Z,25.75
2023-09-27T13:43:55.698Z,25.75
2023-09-27T13:44:41.511Z,26.19
2023-09-27T13:47:08.019Z,26.15
2023-09-27T13:48:55.692Z,26.15
2023-09-27T13:49:34.707Z,25.95
2023-09-27T13:52:01.773Z,25.43
2023-09-27T13:53:55.366Z,25.43
2023-09-27T13:54:28.327Z,26.41
2023-09-27T13:56:54.864Z,26.55
2023-09-27T13:58:55.620Z,26.55
2023-09-27T13:59:21.341Z,26.15
2023-09-27T14:01:47.900Z,25.93
2023-09-27T14:03:55.461Z,25.93
2023-09-27T14:04:14.626Z,25.68
2023-09-27T14:06:41.773Z,25.54
2023-09-27T14:08:55.797Z,25.54
2023-09-27T14:09:08.477Z,25.33
2023-09-27T14:11:35.089Z,25.24
2023-09-27T14:13:55.798Z,25.24
2023-09-27T14:14:01.722Z,24.97
2023-09-27T14:16:28.956Z,24.29
2023-09-27T14:18:55.803Z,24.68
2023-09-27T14:18:56.376Z,24.68
2023-09-27T14:21:22.375Z,24.03
2023-09-27T14:23:49.861Z,24.55
2023-09-27T14:23:55.543Z,24.55
2023-09-27T14:26:18.007Z,24.52
2023-09-27T14:28:44.386Z,24.23
2023-09-27T14:28:55.353Z,24.23
2023-09-27T14:31:11.316Z,24.27
2023-09-27T14:33:37.949Z,24.82
2023-09-27T14:33:56.963Z,24.82
2023-09-27T14:36:05.053Z,25.15
2023-09-27T14:38:36.543Z,24.66
2023-09-27T14:38:55.370Z,24.66
2023-09-27T14:41:09.873Z,25.45
2023-09-27T14:43:38.633Z,25.50
2023-09-27T14:43:55.743Z,25.50
2023-09-27T14:46:10.175Z,25.57
2023-09-27T14:48:37.043Z,25.59
2023-09-27T14:48:55.364Z,25.59
2023-09-27T14:51:04.165Z,25.28
2023-09-27T14:53:31.007Z,24.72
2023-09-27T14:53:55.669Z,24.72
2023-09-27T14:56:10.599Z,24.76
2023-09-27T14:58:37.379Z,24.87
2023-09-27T14:58:55.424Z,24.87
2023-09-27T15:01:05.104Z,24.24
2023-09-27T15:03:33.052Z,24.79
2023-09-27T15:03:55.753Z,24.79
2023-09-27T15:06:03.848Z,24.87
2023-09-27T15:08:31.132Z,24.71
2023-09-27T15:08:55.365Z,24.71
2023-09-27T15:10:57.968Z,24.66
2023-09-27T15:13:24.544Z,24.19
2023-09-27T15:13:55.939Z,24.19
2023-09-27T15:15:51.104Z,24.61
2023-09-27T15:18:17.656Z,23.80
2023-09-27T15:18:55.379Z,23.80
2023-09-27T15:20:44.127Z,24.19
2023-09-27T15:23:10.483Z,24.06
2023-09-27T15:23:55.686Z,24.06
2023-09-27T15:25:37.134Z,24.00
2023-09-27T15:28:03.938Z,24.16
2023-09-27T15:28:55.386Z,24.16
2023-09-27T15:30:30.293Z,24.10
2023-09-27T15:32:56.660Z,23.96
2023-09-27T15:33:55.400Z,23.96
2023-09-27T15:35:23.291Z,23.63
2023-09-27T15:37:53.293Z,23.77
2023-09-27T15:38:55.407Z,23.77
2023-09-27T15:40:20.411Z,23.65
2023-09-27T15:42:54.773Z,23.38
2023-09-27T15:43:55.853Z,23.38
2023-09-27T15:45:22.006Z,23.46
2023-09-27T15:47:49.613Z,23.42
2023-09-27T15:48:55.383Z,23.42
2023-09-27T15:50:16.425Z,22.79
2023-09-27T15:52:43.169Z,23.15
2023-09-27T15:54:07.265Z,23.15
2023-09-27T15:55:10.383Z,23.02
2023-09-27T15:57:38.979Z,22.85
2023-09-27T15:58:55.420Z,22.85
2023-09-27T16:00:09.311Z,22.41
2023-09-27T16:02:36.140Z,22.59
2023-09-27T16:03:55.776Z,22.59
2023-09-27T16:05:05.037Z,21.83
2023-09-27T16:07:32.165Z,21.89
2023-09-27T16:08:55.380Z,21.89
2023-09-27T16:09:58.795Z,22.23
2023-09-27T16:12:25.165Z,22.12
2023-09-27T16:13:55.570Z,22.12
2023-09-27T16:14:52.046Z,22.03
2023-09-27T16:17:18.823Z,21.91
2023-09-27T16:18:55.374Z,21.91
2023-09-27T16:19:45.273Z,21.80
2023-09-27T16:22:11.887Z,21.34
2023-09-27T16:23:57.816Z,21.34
2023-09-27T16:24:38.335Z,21.14
2023-09-27T16:27:05.163Z,21.61
2023-09-27T16:28:55.450Z,21.61
2023-09-27T16:29:32.387Z,21.19
2023-09-27T16:31:59.598Z,21.45
2023-09-27T16:33:55.812Z,21.45
2023-09-27T16:34:26.425Z,21.16
2023-09-27T16:36:52.940Z,21.29
2023-09-27T16:38:55.400Z,21.29
2023-09-27T16:39:22.499Z,21.20
2023-09-27T16:41:50.234Z,21.11
2023-09-27T16:43:55.568Z,21.11
2023-09-27T16:44:16.682Z,21.00
2023-09-27T16:46:43.307Z,20.72
2023-09-27T16:48:55.394Z,20.72
2023-09-27T16:49:09.719Z,20.87
2023-09-27T16:51:36.393Z,20.83
2023-09-27T16:53:55.607Z,20.83
2023-09-27T16:54:03.308Z,20.49
2023-09-27T16:56:29.744Z,20.71
2023-09-27T16:58:57.390Z,20.74
2023-09-27T16:58:57.616Z,20.74
2023-09-27T17:01:24.274Z,20.71
2023-09-27T17:03:51.970Z,20.16
2023-09-27T17:03:56.171Z,20.16
2023-09-27T17:06:20.003Z,20.30
2023-09-27T17:08:48.122Z,20.24
2023-09-27T17:08:55.438Z,20.24
2023-09-27T17:11:23.281Z,20.39
2023-09-27T17:13:51.068Z,20.39
2023-09-27T17:13:55.695Z,20.39
2023-09-27T17:16:22.313Z,20.31
2023-09-27T17:18:48.904Z,20.22
2023-09-27T17:18:55.404Z,20.22
2023-09-27T17:21:15.307Z,19.68
2023-09-27T17:23:41.762Z,19.57
2023-09-27T17:23:55.689Z,19.57
2023-09-27T17:26:08.389Z,19.91
2023-09-27T17:28:34.955Z,19.66
2023-09-27T17:28:55.504Z,19.66
2023-09-27T17:31:01.361Z,19.58
2023-09-27T17:33:28.406Z,19.71
2023-09-27T17:33:55.647Z,19.71
2023-09-27T17:35:59.156Z,19.35
2023-09-27T17:38:25.612Z,19.56
2023-09-27T17:38:55.421Z,19.56
2023-09-27T17:40:52.136Z,18.40
2023-09-27T17:43:18.671Z,18.95
2023-09-27T17:43:55.656Z,18.95
2023-09-27T17:45:50.516Z,18.88
2023-09-27T17:48:16.984Z,18.66
2023-09-27T17:48:55.393Z,18.66
2023-09-27T17:50:43.425Z,19.33
2023-09-27T17:53:10.246Z,19.30
2023-09-27T17:53:55.750Z,19.30
2023-09-27T17:55:37.706Z,19.27
2023-09-27T17:58:04.859Z,19.08
2023-09-27T17:58:55.650Z,19.08
2023-09-27T18:00:31.816Z,18.16
2023-09-27T18:02:58.701Z,19.12
2023-09-27T18:03:55.772Z,19.12
2023-09-27T18:05:25.133Z,18.90
2023-09-27T18:07:51.559Z,18.98
2023-09-27T18:08:55.406Z,18.98
2023-09-27T18:10:18.094Z,18.92
2023-09-27T18:12:44.482Z,18.37
2023-09-27T18:13:55.795Z,18.37
2023-09-27T18:15:25.174Z,18.81
2023-09-27T18:17:54.595Z,18.81
2023-09-27T18:18:55.466Z,18.81
2023-09-27T18:20:21.128Z,18.76
2023-09-27T18:22:47.580Z,18.69
2023-09-27T18:23:56.014Z,18.69
2023-09-27T18:25:14.558Z,18.35
2023-09-27T18:27:40.979Z,17.93
2023-09-27T18:28:55.606Z,17.93
2023-09-27T18:30:08.555Z,18.56
2023-09-27T18:32:35.717Z,18.10
2023-09-27T18:33:55.611Z,18.10
2023-09-27T18:35:02.339Z,17.99
2023-09-27T18:37:29.099Z,18.38
2023-09-27T18:38:55.437Z,18.38
2023-09-27T18:39:55.785Z,18.12
2023-09-27T18:42:22.789Z,18.32
2023-09-27T18:43:55.800Z,18.32
2023-09-27T18:44:49.257Z,18.29
2023-09-27T18:47:16.145Z,17.47
2023-09-27T18:48:55.418Z,17.47
2023-09-27T18:49:42.718Z,18.15
2023-09-27T18:52:09.346Z,17.63
2023-09-27T18:53:55.944Z,17.63
2023-09-27T18:54:35.891Z,17.98
2023-09-27T18:57:02.475Z,17.93
2023-09-27T18:58:55.558Z,17.93
2023-09-27T18:59:29.043Z,17.91
2023-09-27T19:01:55.793Z,17.68
2023-09-27T19:03:55.884Z,17.68
2023-09-27T19:04:22.318Z,17.79
2023-09-27T19:06:48.705Z,17.71
2023-09-27T19:08:55.410Z,17.71
2023-09-27T19:09:17.137Z,17.27
2023-09-27T19:11:43.912Z,17.73
2023-09-27T19:13:55.656Z,17.73
2023-09-27T19:14:13.000Z,17.74
2023-09-27T19:16:39.582Z,17.51
2023-09-27T19:18:55.429Z,17.51
2023-09-27T19:19:09.036Z,17.46
2023-09-27T19:21:35.596Z,17.86
2023-09-27T19:23:55.418Z,17.86
2023-09-27T19:24:02.179Z,17.84
2023-09-27T19:26:28.852Z,17.15
2023-09-27T19:28:55.425Z,17.73
2023-09-27T19:28:57.665Z,17.73
2023-09-27T19:31:22.145Z,17.85
2023-09-27T19:33:49.951Z,17.85
2023-09-27T19:33:55.525Z,17.85
2023-09-27T19:36:21.520Z,17.83
2023-09-27T19:38:01.058Z,17.83
2023-09-27T19:38:50.976Z,17.81
2023-09-27T19:41:17.714Z,17.69
2023-09-27T19:43:00.860Z,17.69
2023-09-27T19:43:44.292Z,17.47
2023-09-27T19:46:12.185Z,17.67
2023-09-27T19:48:01.019Z,17.67
2023-09-27T19:48:45.378Z,17.14
2023-09-27T19:51:22.608Z,17.61
2023-09-27T19:53:00.909Z,17.61
2023-09-27T19:53:53.301Z,17.34
2023-09-27T19:56:20.418Z,17.31
2023-09-27T19:58:00.876Z,17.31
2023-09-27T19:58:47.446Z,17.58
2023-09-27T20:01:27.779Z,17.47
2023-09-27T20:03:00.964Z,17.47
2023-09-27T20:03:54.637Z,17.58
2023-09-27T20:06:21.440Z,16.72
2023-09-27T20:08:03.320Z,16.72
2023-09-27T20:12:35.339Z,17.45
2023-09-27T20:13:19.876Z,17.45
2023-09-27T20:15:28.348Z,17.41
2023-09-27T20:19:05.784Z,15.90
2023-09-27T20:23:00.991Z,17.45
2023-09-27T20:29:50.737Z,17.33
2023-09-27T20:32:23.147Z,15.85
2023-09-27T20:32:23.346Z,15.85
2023-09-27T20:39:13.973Z,17.47
2023-09-27T20:44:56.015Z,17.45
2023-09-27T20:47:17.337Z,17.45
2023-09-27T20:47:38.284Z,17.47
2023-09-27T20:53:15.718Z,15.96
2023-09-27T20:53:59.400Z,16.53
2023-09-27T20:57:22.532Z,16.40
2023-09-27T20:59:54.744Z,17.46
2023-09-27T21:02:13.529Z,17.46
2023-09-27T21:07:13.995Z,16.75
2023-09-27T21:09:37.459Z,16.75
2023-09-27T21:12:14.030Z,16.98
2023-09-27T21:12:22.610Z,16.98
2023-09-27T21:17:21.395Z,17.44
2023-09-27T21:23:16.720Z,17.31
2023-09-27T21:32:14.216Z,17.34
2023-09-27T21:47:12.337Z,16.92
2023-09-27T21:55:47.580Z,17.35
2023-09-27T21:57:45.481Z,17.35
2023-09-27T22:12:14.284Z,16.88
2023-09-27T22:18:02.098Z,17.18
2023-09-27T22:20:39.262Z,17.59
2023-09-27T22:31:33.100Z,16.78
2023-09-27T22:33:42.122Z,16.78
2023-09-27T22:39:04.216Z,17.60
2023-09-27T23:09:03.839Z,17.46
2023-09-27T23:12:29.887Z,17.14
2023-09-27T23:17:11.216Z,17.47
2023-09-27T23:19:29.494Z,17.49
2023-09-27T23:23:34.521Z,17.39
2023-09-27T23:26:22.124Z,17.36
2023-09-27T23:27:19.221Z,17.36
2023-09-27T23:29:19.521Z,17.49
2023-09-27T23:33:11.608Z,17.50
2023-09-27T23:37:12.187Z,17.51
2023-09-27T23:46:21.661Z,17.42